Cap Skiring, Cap Skirring Airport (GOGS)

NameCap Skirring Airport
CityCap Skiring
CountrySenegal
ICAOGOGS
IATACSK
Altitude16 m
CoordinatesGoogle Map
Live Air TrafficLiveATC.net
METARGOGS 230800Z VRB08KT 9999 SCT013 28/24 Q1012
2019-08-23 08:00:00 Wind: North (0°) 4.12 m/s - Visibility: > 10000 m - Temperature: 28 °C - Dew point: 24 °C - Humidity: 78.9% - Pressure: 1012 hPa

Sorry, no flights used the airport in this database.